Terminal Aerodrome Forecast
Issued by NWS

Home | Current Version | Previous Version | Graphics & Text | Print | Product List | Glossary On
Versions: 1 2 3 4 5 6 7 8 9 10 11 12 13 14
000
FTUS43 KICT 251137
TAFSLN
TAF
KSLN 251137Z 2512/2612 32024G34KT P6SM SCT030 OVC050
     FM251500 34027G38KT P6SM SCT020 BKN030
     FM252200 34015KT P6SM SCT200
     FM260100 33006KT P6SM SCT200
     FM260700 25006KT P6SM FEW200=

USA.gov is the U.S. government's official web portal to all federal, state and local government web resources and services.